Time;durP1;ratioP1;P1;durP2;ratioP2;P2;SDS_P1;SDS_P2;PMS_P1;PMS_P2;Temp;Humidity;BMP_temperature;BMP_pressure;BME280_temperature;BME280_humidity;BME280_pressure;Samples;Min_cycle;Max_cycle;Signal;HPM_P1;HPM_P2
2021/07/28 00:01:55;;;;;;;8.15;6.78;;;;;;;20.45;72.51;100340.19;3564692;40;20056;-42
2021/07/28 00:04:22;;;;;;;7.53;6.93;;;;;;;20.42;72.13;100342.84;3564573;40;20426;-43
2021/07/28 00:06:49;;;;;;;7.85;6.95;;;;;;;20.47;72.24;100349.69;3564942;40;20069;-42
2021/07/28 00:09:16;;;;;;;8.23;6.68;;;;;;;20.45;71.10;100345.41;3564506;40;20365;-41
2021/07/28 00:11:43;;;;;;;8.35;7.13;;;;;;;20.49;70.33;100336.69;3564508;40;20057;-41
2021/07/28 00:14:11;;;;;;;8.63;6.55;;;;;;;20.48;70.79;100340.19;3564463;40;20049;-43
2021/07/28 00:16:38;;;;;;;8.50;7.10;;;;;;;20.52;70.75;100340.09;3564460;40;20470;-41
2021/07/28 00:19:12;;;;;;;6.88;6.18;;;;;;;20.47;71.21;100333.19;3564523;40;20053;-41
2021/07/28 00:24:30;;;;;;;8.90;6.40;;;;;;;20.54;70.90;100324.44;3564495;40;20381;-43
2021/07/28 00:27:01;;;;;;;7.38;6.68;;;;;;;20.35;71.10;100316.13;3564482;40;20106;-41
2021/07/28 00:29:29;;;;;;;7.47;6.72;;;;;;;20.16;72.22;100313.03;3562459;40;20077;-41
2021/07/28 00:31:57;;;;;;;8.00;6.63;;;;;;;20.33;72.04;100316.13;3568382;40;20088;-43
2021/07/28 00:34:24;;;;;;;8.65;6.90;;;;;;;20.54;70.69;100314.88;3564351;40;20058;-41
2021/07/28 00:36:51;;;;;;;7.53;6.82;;;;;;;20.43;71.05;100318.53;3564575;40;20061;-42
2021/07/28 00:39:18;;;;;;;9.80;7.32;;;;;;;20.38;71.17;100321.25;3564733;40;20053;-42
2021/07/28 00:41:45;;;;;;;8.25;6.55;;;;;;;20.19;71.64;100325.09;3564357;40;20077;-42
2021/07/28 00:44:13;;;;;;;9.23;7.03;;;;;;;20.06;72.78;100321.91;3564244;40;20431;-42
2021/07/28 00:46:40;;;;;;;6.95;6.35;;;;;;;20.17;72.41;100313.91;3564093;40;20096;-41
2021/07/28 00:49:08;;;;;;;8.98;7.20;;;;;;;20.18;72.85;100315.59;3564470;40;20049;-42
2021/07/28 00:51:35;;;;;;;7.80;7.00;;;;;;;19.87;74.52;100313.56;3564703;40;20090;-42
2021/07/28 00:54:02;;;;;;;7.63;6.50;;;;;;;20.09;73.28;100314.88;3564260;40;20045;-41
2021/07/28 00:56:30;;;;;;;8.75;7.82;;;;;;;20.01;74.04;100313.31;3564059;40;20056;-41
2021/07/28 00:58:57;;;;;;;8.77;6.75;;;;;;;19.79;75.73;100310.28;3564336;40;22713;-43
2021/07/28 01:01:24;;;;;;;8.93;7.03;;;;;;;19.77;76.46;100312.91;3564362;40;20056;-41
2021/07/28 01:03:51;;;;;;;11.82;7.03;;;;;;;19.86;76.40;100309.28;3564096;40;20053;-42
2021/07/28 01:06:19;;;;;;;7.50;6.80;;;;;;;19.59;77.08;100313.19;3564061;40;20092;-42
2021/07/28 01:08:46;;;;;;;7.63;6.75;;;;;;;19.36;78.28;100310.97;3563446;40;20116;-40
2021/07/28 01:11:23;;;;;;;10.23;7.57;;;;;;;19.55;77.45;100309.81;3564020;40;20104;-41
2021/07/28 01:13:50;;;;;;;8.77;7.38;;;;;;;19.61;76.42;100311.47;3564118;40;20072;-43
2021/07/28 01:16:22;;;;;;;8.18;7.32;;;;;;;19.43;77.13;100307.41;3564287;40;20057;-42
2021/07/28 01:18:50;;;;;;;7.88;7.18;;;;;;;19.43;77.50;100304.81;3564142;40;20042;-41
2021/07/28 01:21:20;;;;;;;8.98;6.43;;;;;;;19.45;77.45;100307.38;3564087;40;20561;-42
2021/07/28 01:23:48;;;;;;;10.57;7.13;;;;;;;19.49;78.91;100301.25;3564198;40;20127;-42
2021/07/28 01:26:15;;;;;;;8.13;7.32;;;;;;;19.46;78.97;100309.97;3563408;40;20053;-43
2021/07/28 01:28:43;;;;;;;8.55;7.50;;;;;;;19.08;80.59;100307.97;3563764;40;20109;-43
2021/07/28 01:31:12;;;;;;;8.95;6.80;;;;;;;19.02;80.16;100308.06;3563978;40;20056;-44
2021/07/28 01:33:41;;;;;;;9.80;7.93;;;;;;;18.73;82.12;100298.13;3564303;40;20100;-45
2021/07/28 01:36:21;;;;;;;7.32;6.55;;;;;;;18.73;82.95;100298.97;3564125;40;20089;-41
2021/07/28 01:38:50;;;;;;;10.25;7.78;;;;;;;18.77;83.09;100305.00;3563978;40;20085;-41
2021/07/28 01:41:18;;;;;;;9.38;7.97;;;;;;;18.74;83.17;100312.81;3563947;40;20108;-42
2021/07/28 01:43:45;;;;;;;8.35;6.97;;;;;;;18.82;82.51;100305.78;3564020;40;20072;-42
2021/07/28 01:46:17;;;;;;;8.68;7.43;;;;;;;18.63;84.83;100305.16;3563860;40;20089;-41
2021/07/28 01:48:45;;;;;;;8.05;7.10;;;;;;;18.60;85.03;100306.91;3563917;40;20143;-41
2021/07/28 01:51:12;;;;;;;7.90;7.10;;;;;;;18.83;84.12;100307.47;3563899;40;20053;-41
2021/07/28 01:53:41;;;;;;;10.38;7.80;;;;;;;18.61;85.21;100311.22;3563956;40;20053;-43
2021/07/28 01:56:08;;;;;;;9.75;7.80;;;;;;;18.61;84.82;100316.41;3563953;40;20359;-43
2021/07/28 01:58:38;;;;;;;10.48;7.53;;;;;;;18.36;86.99;100311.53;3564110;40;20089;-41
2021/07/28 02:01:06;;;;;;;9.85;7.93;;;;;;;18.21;88.00;100312.59;3564133;40;20097;-42
2021/07/28 02:03:33;;;;;;;8.25;7.18;;;;;;;18.46;86.45;100307.94;3563958;40;20307;-41
2021/07/28 02:06:00;;;;;;;11.77;8.52;;;;;;;18.40;85.48;100310.63;3563740;40;20135;-42
2021/07/28 02:08:27;;;;;;;10.85;7.95;;;;;;;18.21;87.35;100309.09;3563632;40;20155;-42
2021/07/28 02:10:54;;;;;;;8.48;7.50;;;;;;;18.35;87.30;100309.84;3563892;40;20052;-43
2021/07/28 02:13:23;;;;;;;11.93;8.52;;;;;;;18.63;85.92;100305.16;3563772;40;20081;-42
2021/07/28 02:15:50;;;;;;;8.63;7.70;;;;;;;18.75;84.43;100306.72;3563598;40;20104;-42
2021/07/28 02:18:17;;;;;;;9.43;8.43;;;;;;;18.80;83.80;100308.38;3563374;40;20165;-43
2021/07/28 02:20:44;;;;;;;13.73;8.90;;;;;;;18.98;82.76;100320.22;3563495;40;20077;-41
2021/07/28 02:23:11;;;;;;;8.98;8.07;;;;;;;19.05;82.41;100319.28;3563461;40;20089;-42
2021/07/28 02:25:38;;;;;;;10.27;8.20;;;;;;;19.01;83.08;100324.53;3565269;40;20093;-42
2021/07/28 02:28:05;;;;;;;8.98;8.13;;;;;;;19.03;83.21;100318.41;3564005;40;20057;-44
2021/07/28 02:30:32;;;;;;;11.80;9.05;;;;;;;18.81;84.52;100325.69;3563379;40;20415;-43
2021/07/28 02:32:59;;;;;;;13.65;9.73;;;;;;;18.44;87.73;100320.09;3570393;40;20057;-44
2021/07/28 02:35:27;;;;;;;11.63;9.38;;;;;;;18.23;89.67;100316.00;3572481;40;20085;-43
2021/07/28 02:37:54;;;;;;;13.05;9.85;;;;;;;18.07;92.06;100306.69;3572666;40;20093;-43
2021/07/28 02:40:21;;;;;;;10.43;8.10;;;;;;;18.08;91.65;100307.56;3573911;40;20100;-42
2021/07/28 02:42:48;;;;;;;10.27;8.63;;;;;;;18.04;92.92;100310.19;3574060;40;20049;-42
2021/07/28 02:45:16;;;;;;;10.38;8.95;;;;;;;18.28;92.57;100309.03;3569818;40;20056;-42
2021/07/28 02:47:43;;;;;;;11.35;8.50;;;;;;;18.96;86.08;100314.22;3574318;40;20084;-42
2021/07/28 02:50:11;;;;;;;10.05;8.63;;;;;;;18.72;86.40;100315.44;3573943;40;20077;-43
2021/07/28 02:52:38;;;;;;;10.07;8.35;;;;;;;18.48;89.53;100315.69;3574035;40;20107;-42
2021/07/28 02:55:06;;;;;;;9.73;8.40;;;;;;;19.01;85.00;100309.81;3574273;40;20057;-43
2021/07/28 02:57:34;;;;;;;12.55;8.57;;;;;;;18.74;85.43;100305.03;3570581;40;20048;-43
2021/07/28 03:00:07;;;;;;;9.60;8.07;;;;;;;18.49;87.65;100296.69;3574256;40;20056;-43
2021/07/28 03:02:35;;;;;;;10.70;8.40;;;;;;;18.36;89.15;100290.81;3566829;40;20081;-42
2021/07/28 03:05:02;;;;;;;11.88;9.00;;;;;;;18.29;88.74;100289.16;3574147;40;20390;-43
2021/07/28 03:07:29;;;;;;;9.10;8.27;;;;;;;18.26;88.74;100281.44;3573240;40;20064;-42
2021/07/28 03:09:57;;;;;;;13.07;8.65;;;;;;;18.25;90.63;100279.69;3573856;40;20060;-43
2021/07/28 03:12:24;;;;;;;9.80;8.80;;;;;;;18.60;89.60;100284.44;3573648;40;20053;-43
2021/07/28 03:14:53;;;;;;;9.18;8.05;;;;;;;18.50;90.19;100286.28;3573941;40;20085;-42
2021/07/28 03:17:21;;;;;;;10.05;8.23;;;;;;;18.48;89.09;100282.84;3573611;40;20040;-43
2021/07/28 03:19:48;;;;;;;8.60;7.68;;;;;;;18.40;89.02;100286.44;3574066;40;20096;-42
2021/07/28 03:22:15;;;;;;;9.63;8.68;;;;;;;18.56;88.34;100287.94;3573542;40;20092;-43
2021/07/28 03:24:42;;;;;;;9.50;8.52;;;;;;;19.05;86.07;100306.28;3574412;40;20053;-42
2021/07/28 03:27:09;;;;;;;10.18;8.05;;;;;;;19.14;85.13;100307.88;3573735;40;20080;-43
2021/07/28 03:29:36;;;;;;;10.70;8.52;;;;;;;19.16;84.64;100313.91;3574349;40;20081;-42
2021/07/28 03:32:04;;;;;;;13.63;8.05;;;;;;;19.01;85.31;100317.59;3573993;40;20096;-44
2021/07/28 03:34:31;;;;;;;11.80;8.55;;;;;;;19.00;85.01;100310.69;3573663;40;20091;-42
2021/07/28 03:36:58;;;;;;;10.40;8.13;;;;;;;18.74;86.86;100307.63;3569385;40;20053;-44
2021/07/28 03:39:25;;;;;;;10.77;8.45;;;;;;;18.59;88.30;100313.84;3572937;40;20049;-42
2021/07/28 03:41:52;;;;;;;10.23;8.93;;;;;;;18.47;89.30;100316.59;3574228;40;20049;-43
2021/07/28 03:44:19;;;;;;;10.30;8.55;;;;;;;18.72;87.76;100319.72;3573354;40;20065;-45
2021/07/28 03:46:46;;;;;;;9.70;8.07;;;;;;;19.01;86.20;100325.38;3573870;40;20434;-46
2021/07/28 03:49:13;;;;;;;12.20;8.60;;;;;;;18.75;87.81;100322.28;3573458;40;20283;-44
2021/07/28 03:51:40;;;;;;;12.68;8.55;;;;;;;18.92;85.79;100317.72;3573923;40;20120;-44
2021/07/28 03:54:07;;;;;;;8.90;7.97;;;;;;;19.03;84.15;100322.75;3573940;40;20084;-44
2021/07/28 03:56:34;;;;;;;9.07;8.05;;;;;;;18.82;85.97;100321.34;3570230;40;20044;-44
2021/07/28 03:59:01;;;;;;;8.32;7.50;;;;;;;19.14;83.58;100318.28;3573550;40;20060;-43
2021/07/28 04:01:28;;;;;;;9.55;8.13;;;;;;;19.08;83.85;100314.00;3572248;40;20453;-44
2021/07/28 04:03:55;;;;;;;9.32;7.72;;;;;;;19.15;81.91;100312.19;3571574;40;20426;-43
2021/07/28 04:06:22;;;;;;;9.88;8.65;;;;;;;19.36;80.87;100312.72;3569351;40;20097;-44
2021/07/28 04:08:49;;;;;;;9.43;7.85;;;;;;;19.41;80.65;100311.75;3573679;40;20053;-42
2021/07/28 04:11:16;;;;;;;9.15;7.32;;;;;;;19.15;82.75;100308.75;3573509;40;20085;-44
2021/07/28 04:13:43;;;;;;;11.10;8.50;;;;;;;19.12;82.99;100309.63;3573322;40;20867;-43
2021/07/28 04:16:10;;;;;;;9.65;8.00;;;;;;;19.57;80.37;100315.81;3573356;40;20092;-43
2021/07/28 04:18:37;;;;;;;11.82;7.88;;;;;;;19.74;80.53;100317.31;3573394;40;20064;-42
2021/07/28 04:21:04;;;;;;;12.02;7.65;;;;;;;19.64;80.32;100326.97;3573552;40;20427;-43
2021/07/28 04:23:31;;;;;;;16.65;8.48;;;;;;;19.61;79.40;100332.25;3573682;40;20093;-44
2021/07/28 04:25:59;;;;;;;9.20;7.20;;;;;;;19.59;79.84;100333.97;3573642;40;21614;-44
2021/07/28 04:28:26;;;;;;;9.40;8.35;;;;;;;19.52;78.71;100327.19;3572852;40;20038;-44
2021/07/28 04:30:56;;;;;;;11.55;8.38;;;;;;;19.56;79.34;100328.84;3573472;40;20037;-46
2021/07/28 04:33:23;;;;;;;11.63;9.30;;;;;;;19.61;79.84;100327.06;3573214;40;20063;-45
2021/07/28 04:35:50;;;;;;;14.07;8.93;;;;;;;19.48;81.19;100326.38;3573676;40;20111;-45
2021/07/28 04:38:17;;;;;;;9.82;8.88;;;;;;;19.34;81.76;100330.94;3573030;40;20085;-43
2021/07/28 04:40:44;;;;;;;15.23;8.65;;;;;;;19.15;84.24;100325.19;3573399;40;20089;-44
2021/07/28 04:43:16;;;;;;;11.85;9.02;;;;;;;19.26;82.37;100325.00;3568201;40;20072;-46
2021/07/28 04:45:43;;;;;;;12.00;9.43;;;;;;;19.50;80.11;100318.53;3565285;40;20053;-45
2021/07/28 04:48:10;;;;;;;9.88;8.43;;;;;;;19.42;81.00;100316.09;3573107;40;20096;-47
2021/07/28 04:50:38;;;;;;;9.40;8.45;;;;;;;19.16;82.63;100315.66;3572974;40;20044;-43
2021/07/28 04:53:05;;;;;;;11.52;8.65;;;;;;;19.48;80.45;100310.78;3573357;40;20052;-44
2021/07/28 04:55:33;;;;;;;14.55;8.80;;;;;;;19.45;80.84;100307.38;3568976;40;20060;-47
2021/07/28 04:58:00;;;;;;;13.18;8.80;;;;;;;19.05;83.86;100303.69;3573555;40;20429;-42
2021/07/28 05:00:27;;;;;;;11.90;9.20;;;;;;;19.06;85.50;100302.81;3573360;40;20045;-42
2021/07/28 05:02:54;;;;;;;10.95;9.00;;;;;;;18.83;85.70;100295.38;3573392;40;20338;-44
2021/07/28 05:05:21;;;;;;;10.55;8.90;;;;;;;18.80;86.23;100295.41;3573243;40;20057;-42
2021/07/28 05:07:48;;;;;;;11.18;9.30;;;;;;;18.72;87.30;100298.97;3573123;40;20435;-42
2021/07/28 05:10:15;;;;;;;9.68;8.55;;;;;;;18.91;86.75;100308.25;3573180;40;20053;-42
2021/07/28 05:12:42;;;;;;;11.98;9.10;;;;;;;19.38;82.95;100305.78;3573480;40;20434;-45
2021/07/28 05:15:10;;;;;;;10.70;8.57;;;;;;;19.25;85.30;100312.91;3573044;40;20056;-42
2021/07/28 05:17:37;;;;;;;10.95;8.02;;;;;;;19.25;86.85;100313.75;3573460;40;20084;-42
2021/07/28 05:20:12;;;;;;;10.23;8.55;;;;;;;19.24;86.96;100322.44;3573266;40;20088;-42
2021/07/28 05:22:39;;;;;;;21.45;11.15;;;;;;;19.51;84.97;100313.34;3567093;40;20037;-42
2021/07/28 05:25:07;;;;;;;24.48;10.88;;;;;;;19.38;86.64;100318.75;3573407;40;20328;-42
2021/07/28 05:27:43;;;;;;;23.23;10.77;;;;;;;19.27;87.71;100325.00;3567155;40;20069;-43
2021/07/28 05:30:11;;;;;;;13.85;10.02;;;;;;;19.03;87.99;100325.34;3572987;40;20153;-42
2021/07/28 05:32:38;;;;;;;20.33;11.25;;;;;;;19.25;88.11;100328.47;3573347;40;20085;-42
2021/07/28 05:35:05;;;;;;;23.38;12.48;;;;;;;19.23;87.95;100332.84;3573195;40;20365;-42
2021/07/28 05:37:44;;;;;;;24.85;11.65;;;;;;;19.09;89.49;100335.66;3573347;40;20064;-42
2021/07/28 05:40:12;;;;;;;14.35;10.23;;;;;;;18.81;91.57;100320.50;3573444;40;20485;-44
2021/07/28 05:42:39;;;;;;;10.52;8.82;;;;;;;18.86;91.04;100314.34;3573765;40;20266;-42
2021/07/28 05:45:06;;;;;;;10.60;8.98;;;;;;;19.35;89.25;100322.25;3573138;40;20076;-45
2021/07/28 05:47:33;;;;;;;10.95;9.18;;;;;;;19.57;86.37;100330.56;3565513;40;20092;-42
2021/07/28 05:50:00;;;;;;;13.50;9.05;;;;;;;19.60;85.18;100338.34;3573670;40;20049;-42
2021/07/28 05:52:27;;;;;;;10.25;9.18;;;;;;;19.48;85.99;100346.28;3573203;40;20060;-42
2021/07/28 05:54:58;;;;;;;11.98;9.63;;;;;;;19.34;86.95;100346.50;3573766;40;20073;-43
2021/07/28 05:57:25;;;;;;;11.93;9.23;;;;;;;19.02;91.03;100349.59;3573082;40;20049;-42
2021/07/28 05:59:52;;;;;;;10.70;9.32;;;;;;;18.78;94.56;100333.50;3573222;40;20153;-42
2021/07/28 06:02:19;;;;;;;12.15;9.40;;;;;;;18.43;97.22;100325.28;3573239;40;20034;-42
2021/07/28 06:04:46;;;;;;;11.60;10.30;;;;;;;18.49;98.17;100338.19;3573247;40;20329;-45
2021/07/28 06:07:16;;;;;;;11.60;10.32;;;;;;;18.29;100.00;100334.06;3572772;40;20060;-42
2021/07/28 06:09:46;;;;;;;16.85;11.18;;;;;;;18.08;100.00;100326.56;3573023;40;20056;-42
2021/07/28 06:12:18;;;;;;;13.73;11.32;;;;;;;18.20;100.00;100325.53;3572644;40;20081;-42
2021/07/28 06:14:46;;;;;;;11.40;10.05;;;;;;;18.55;100.00;100319.94;3572714;40;20040;-42
2021/07/28 06:17:16;;;;;;;11.23;10.05;;;;;;;18.56;100.00;100319.06;3572469;40;20088;-42
2021/07/28 06:19:43;;;;;;;14.63;10.60;;;;;;;18.71;100.00;100329.25;3572734;40;20049;-42
2021/07/28 06:22:10;;;;;;;12.80;10.43;;;;;;;18.70;100.00;100324.94;3572522;40;20307;-42
2021/07/28 06:24:37;;;;;;;12.70;10.88;;;;;;;18.61;100.00;100317.25;3573177;40;20137;-42
2021/07/28 06:27:04;;;;;;;12.13;10.18;;;;;;;19.23;99.63;100318.13;3571644;40;20059;-42
2021/07/28 06:29:32;;;;;;;12.55;10.63;;;;;;;19.28;97.98;100316.31;3573196;40;20494;-42
2021/07/28 06:32:19;;;;;;;14.02;11.00;;;;;;;18.94;100.00;100315.09;3572684;40;20393;-44
2021/07/28 06:34:47;;;;;;;13.82;10.45;;;;;;;19.25;99.88;100323.28;3572788;40;20057;-42
2021/07/28 06:37:18;;;;;;;10.75;9.40;;;;;;;19.36;99.30;100325.69;3572362;40;20041;-42
2021/07/28 06:39:48;;;;;;;12.75;10.57;;;;;;;19.67;99.39;100333.88;3572774;40;20426;-42
2021/07/28 06:42:18;;;;;;;12.45;10.27;;;;;;;19.67;99.55;100333.88;3572490;40;20335;-43
2021/07/28 06:44:46;;;;;;;12.90;10.60;;;;;;;19.50;99.57;100336.72;3573023;40;20357;-44
2021/07/28 06:47:13;;;;;;;12.18;10.38;;;;;;;20.01;95.40;100336.72;3572370;40;20089;-42
2021/07/28 06:49:40;;;;;;;13.52;11.10;;;;;;;20.00;94.95;100332.41;3572781;40;20052;-42
2021/07/28 06:52:07;;;;;;;12.05;10.10;;;;;;;19.86;95.87;100339.59;3573025;40;20072;-44
2021/07/28 06:54:34;;;;;;;12.40;9.77;;;;;;;20.01;97.40;100327.19;3572676;40;20130;-43
2021/07/28 06:57:02;;;;;;;11.35;9.70;;;;;;;20.72;92.55;100339.66;3572933;40;20410;-47
2021/07/28 06:59:29;;;;;;;11.15;9.88;;;;;;;20.82;89.05;100341.16;3572147;40;20077;-43
2021/07/28 07:01:56;;;;;;;11.10;9.05;;;;;;;20.93;90.92;100340.91;3572577;40;20323;-43
2021/07/28 07:04:31;;;;;;;9.63;8.60;;;;;;;21.11;87.61;100332.66;3572096;40;20049;-44
2021/07/28 07:06:58;;;;;;;9.85;8.60;;;;;;;21.06;89.52;100341.50;3572975;40;20083;-43
2021/07/28 07:09:25;;;;;;;10.93;8.65;;;;;;;21.19;87.07;100344.69;3568484;40;20070;-48
2021/07/28 07:11:52;;;;;;;9.15;8.05;;;;;;;21.21;89.28;100356.75;3572593;40;20080;-43
2021/07/28 07:14:19;;;;;;;10.13;8.50;;;;;;;21.10;91.02;100362.22;3572416;40;20105;-43
2021/07/28 07:16:46;;;;;;;16.08;9.50;;;;;;;21.44;88.96;100361.44;3572284;40;20037;-43
2021/07/28 07:19:13;;;;;;;9.07;8.18;;;;;;;21.61;86.49;100367.09;3571624;40;20078;-43
2021/07/28 07:21:50;;;;;;;10.15;8.05;;;;;;;21.39;89.29;100367.66;3572521;40;20133;-43
2021/07/28 07:24:28;;;;;;;10.35;8.55;;;;;;;21.37;87.68;100369.47;3572263;40;20225;-46
2021/07/28 07:26:58;;;;;;;12.40;8.25;;;;;;;21.18;85.81;100379.44;3574006;40;20068;-45
2021/07/28 07:29:28;;;;;;;12.43;8.70;;;;;;;21.22;85.78;100375.88;3573107;40;20041;-43
2021/07/28 07:31:55;;;;;;;11.95;8.55;;;;;;;21.05;85.34;100379.69;3573969;40;20112;-44
2021/07/28 07:34:27;;;;;;;10.13;8.82;;;;;;;20.81;87.06;100375.88;3573479;40;20051;-43
2021/07/28 07:36:57;;;;;;;9.47;8.57;;;;;;;20.82;88.76;100376.75;3574126;40;20053;-44
2021/07/28 07:39:25;;;;;;;11.82;9.50;;;;;;;20.90;87.35;100371.38;3573553;40;20157;-43
2021/07/28 07:41:52;;;;;;;11.60;9.15;;;;;;;20.96;88.17;100369.47;3573652;40;20115;-44
2021/07/28 07:44:19;;;;;;;10.77;9.40;;;;;;;21.26;84.67;100362.72;3573899;40;20041;-44
2021/07/28 07:46:46;;;;;;;12.73;10.52;;;;;;;21.21;85.00;100367.16;3573894;40;20079;-45
2021/07/28 07:49:13;;;;;;;11.55;10.45;;;;;;;21.41;82.34;100369.34;3573522;40;20808;-43
2021/07/28 07:51:41;;;;;;;11.00;9.43;;;;;;;21.70;82.61;100366.03;3573950;40;20133;-43
2021/07/28 07:54:08;;;;;;;11.07;9.73;;;;;;;21.88;78.88;100364.69;3570257;40;20133;-43
2021/07/28 07:56:38;;;;;;;13.10;9.73;;;;;;;21.90;79.43;100362.03;3566478;40;20082;-43
2021/07/28 07:59:05;;;;;;;11.32;10.02;;;;;;;21.93;79.57;100355.00;3573546;40;20080;-43
2021/07/28 08:01:32;;;;;;;10.25;9.20;;;;;;;22.17;77.16;100366.53;3581066;40;20085;-43
2021/07/28 08:03:59;;;;;;;11.43;9.35;;;;;;;22.57;76.35;100362.84;3573534;40;20053;-43
2021/07/28 08:06:26;;;;;;;8.50;7.60;;;;;;;22.53;77.62;100369.88;3573157;40;20082;-46
2021/07/28 08:08:55;;;;;;;10.48;8.07;;;;;;;22.41;77.95;100375.44;3573476;40;20324;-43
2021/07/28 08:11:22;;;;;;;14.30;8.63;;;;;;;22.49;75.21;100380.44;3575145;40;20073;-46
2021/07/28 08:13:54;;;;;;;9.90;8.05;;;;;;;22.75;74.28;100379.72;3577483;40;20089;-44
2021/07/28 08:16:25;;;;;;;12.07;9.07;;;;;;;23.06;74.40;100375.31;3576289;40;20496;-44
2021/07/28 08:18:52;;;;;;;10.85;8.20;;;;;;;23.20;72.87;100367.00;3573950;40;20846;-43
2021/07/28 08:21:19;;;;;;;9.07;8.13;;;;;;;23.15;76.35;100365.47;3572978;40;20104;-43
2021/07/28 08:23:47;;;;;;;12.30;7.63;;;;;;;23.40;73.23;100361.16;3574081;40;20084;-45
2021/07/28 08:26:18;;;;;;;16.13;8.45;;;;;;;23.76;70.18;100358.28;3573209;40;20138;-43
2021/07/28 08:28:48;;;;;;;8.48;7.68;;;;;;;24.57;68.23;100351.00;3573983;40;20076;-43
2021/07/28 08:31:18;;;;;;;8.23;7.20;;;;;;;24.73;64.98;100363.50;3573417;40;20077;-45
2021/07/28 08:33:46;;;;;;;9.07;7.55;;;;;;;24.64;67.84;100349.88;3573823;40;20045;-44
2021/07/28 08:36:14;;;;;;;8.68;7.25;;;;;;;24.40;67.10;100356.00;3573234;40;20052;-44
2021/07/28 08:38:41;;;;;;;10.35;7.43;;;;;;;23.98;67.54;100350.53;3573560;40;20080;-45
2021/07/28 08:41:09;;;;;;;8.30;7.50;;;;;;;24.34;69.56;100367.53;3573275;40;20419;-43
2021/07/28 08:43:42;;;;;;;8.77;7.63;;;;;;;24.73;66.27;100360.88;3573668;40;20049;-44
2021/07/28 08:46:09;;;;;;;8.10;7.10;;;;;;;25.03;65.23;100353.63;3573384;40;20081;-43
2021/07/28 08:48:37;;;;;;;8.73;7.10;;;;;;;24.79;64.96;100355.44;3573360;40;20371;-43
2021/07/28 08:51:10;;;;;;;6.93;6.20;;;;;;;25.39;62.79;100351.31;3573283;40;20467;-43
2021/07/28 08:53:38;;;;;;;8.85;6.35;;;;;;;25.14;59.23;100356.69;3566531;40;20314;-44
2021/07/28 08:56:07;;;;;;;6.68;6.07;;;;;;;25.47;58.66;100356.22;3573483;40;20116;-43
2021/07/28 08:58:34;;;;;;;8.23;6.32;;;;;;;25.03;60.94;100357.09;3573412;40;20069;-45
2021/07/28 09:01:04;;;;;;;8.05;6.57;;;;;;;25.25;63.78;100357.13;3572921;40;20124;-44
2021/07/28 09:03:32;;;;;;;6.32;5.63;;;;;;;25.42;59.70;100358.19;3573207;40;20454;-44
2021/07/28 09:06:09;;;;;;;6.88;6.18;;;;;;;25.19;58.94;100356.50;3573832;40;20053;-45
2021/07/28 09:08:36;;;;;;;7.18;6.47;;;;;;;24.81;60.47;100350.97;3573552;40;20092;-43
2021/07/28 09:11:06;;;;;;;7.07;6.47;;;;;;;25.34;64.00;100348.88;3573634;40;20049;-44
2021/07/28 09:13:37;;;;;;;7.30;6.55;;;;;;;25.28;60.08;100343.91;3573307;40;20097;-43
2021/07/28 09:16:06;;;;;;;6.40;5.80;;;;;;;25.81;57.55;100340.81;3573494;40;20341;-44
2021/07/28 09:18:36;;;;;;;10.48;6.85;;;;;;;25.97;56.58;100337.53;3573146;40;20114;-44
2021/07/28 09:21:06;;;;;;;7.85;6.93;;;;;;;25.14;60.03;100331.34;3573301;40;20317;-46
2021/07/28 09:23:38;;;;;;;7.18;5.93;;;;;;;26.03;58.65;100343.38;3573151;40;20126;-50
2021/07/28 09:26:30;;;;;;;8.15;5.53;;;;;;;25.99;55.93;100339.19;3573014;40;20124;-44
2021/07/28 09:29:14;;;;;;;6.35;5.47;;;;;;;26.70;51.52;100341.25;3547408;40;20108;-45
2021/07/28 09:31:54;;;;;;;6.10;5.53;;;;;;;26.27;53.70;100340.56;3573393;40;20084;-44
2021/07/28 09:34:24;;;;;;;5.63;5.13;;;;;;;26.63;55.39;100336.31;3572962;40;20268;-44
2021/07/28 09:37:00;;;;;;;9.43;5.88;;;;;;;27.41;52.51;100352.75;3572906;40;20102;-44
2021/07/28 09:39:28;;;;;;;8.05;6.40;;;;;;;27.69;50.87;100352.22;3572611;40;20052;-44
2021/07/28 09:41:58;;;;;;;6.82;6.22;;;;;;;27.48;52.50;100356.75;3573014;40;20097;-44
2021/07/28 09:44:30;;;;;;;9.05;6.07;;;;;;;27.50;52.20;100361.94;3572464;40;20093;-44
2021/07/28 09:47:07;;;;;;;7.15;6.45;;;;;;;27.67;53.35;100360.16;3572797;40;20068;-44
2021/07/28 09:49:35;;;;;;;7.03;6.43;;;;;;;27.75;51.38;100351.94;3565429;40;20571;-43
2021/07/28 09:52:21;;;;;;;7.20;6.50;;;;;;;26.90;55.90;100355.19;3573566;40;20100;-47
2021/07/28 09:54:51;;;;;;;7.10;6.35;;;;;;;26.32;54.39;100352.56;3572977;40;20044;-44
2021/07/28 09:57:25;;;;;;;8.38;5.88;;;;;;;26.33;56.93;100356.03;3572499;40;20125;-45
2021/07/28 10:00:03;;;;;;;8.68;7.00;;;;;;;25.97;56.89;100354.13;3572906;40;20084;-44
2021/07/28 10:02:33;;;;;;;8.40;6.85;;;;;;;25.98;58.14;100347.13;3573017;40;20048;-44
2021/07/28 10:05:03;;;;;;;7.90;6.72;;;;;;;26.37;57.73;100336.59;3573196;40;20075;-44
2021/07/28 10:07:43;;;;;;;6.47;5.82;;;;;;;26.03;56.71;100338.13;3572689;40;20073;-43
2021/07/28 10:10:14;;;;;;;7.13;6.32;;;;;;;26.10;58.52;100342.16;3572975;40;20081;-43
2021/07/28 10:12:44;;;;;;;7.40;6.70;;;;;;;26.66;59.89;100348.41;3572931;40;20053;-44
2021/07/28 10:15:12;;;;;;;7.57;6.30;;;;;;;26.80;55.34;100351.25;3572492;40;20060;-45
2021/07/28 10:17:43;;;;;;;7.15;6.38;;;;;;;27.05;53.38;100355.38;3573119;40;20093;-43
2021/07/28 10:20:14;;;;;;;6.22;5.63;;;;;;;26.92;55.02;100355.09;3572715;40;20045;-45
2021/07/28 10:22:44;;;;;;;7.05;5.78;;;;;;;26.02;57.68;100365.28;3573286;40;20080;-43
2021/07/28 10:25:13;;;;;;;6.28;5.68;;;;;;;26.24;57.95;100354.69;3572777;40;20048;-43
2021/07/28 10:27:49;;;;;;;5.68;5.18;;;;;;;26.79;55.12;100351.34;3573150;40;20458;-46
2021/07/28 10:30:20;;;;;;;7.10;5.70;;;;;;;27.42;53.71;100363.19;3572910;40;20268;-48
2021/07/28 10:32:50;;;;;;;5.93;5.30;;;;;;;27.86;52.89;100368.00;3573041;40;20060;-44
2021/07/28 10:35:25;;;;;;;5.90;5.38;;;;;;;28.93;49.34;100367.59;3572821;40;20105;-44
2021/07/28 10:37:54;;;;;;;5.97;5.47;;;;;;;29.59;46.35;100363.88;3572787;40;20081;-43
2021/07/28 10:40:24;;;;;;;5.38;4.88;;;;;;;28.70;48.79;100364.50;3571940;40;20057;-43
2021/07/28 10:42:54;;;;;;;5.85;4.60;;;;;;;28.74;47.88;100358.97;3573058;40;20064;-44
2021/07/28 10:45:26;;;;;;;5.22;4.72;;;;;;;28.93;48.94;100357.03;3572764;40;20090;-44
2021/07/28 10:47:54;;;;;;;5.20;4.78;;;;;;;31.15;42.79;100358.63;3573088;40;20057;-45
2021/07/28 10:50:24;;;;;;;5.68;5.15;;;;;;;31.97;41.05;100360.22;3572660;40;20061;-44
2021/07/28 10:53:02;;;;;;;5.40;4.90;;;;;;;31.94;40.15;100363.94;3568099;40;20087;-44
2021/07/28 10:55:47;;;;;;;4.55;4.22;;;;;;;30.95;43.55;100359.94;3572273;40;20073;-50
2021/07/28 10:58:25;;;;;;;4.43;4.03;;;;;;;32.07;40.51;100358.63;3572245;40;20065;-47
2021/07/28 11:00:53;;;;;;;5.25;4.63;;;;;;;32.14;39.42;100351.13;3574217;40;20053;-48
2021/07/28 11:03:28;;;;;;;4.85;4.38;;;;;;;32.30;37.99;100348.22;3574100;40;20041;-45
2021/07/28 11:06:30;;;;;;;6.45;4.35;;;;;;;31.17;42.07;100347.00;3574296;40;20498;-45
2021/07/28 11:09:14;;;;;;;5.15;4.20;;;;;;;31.14;41.81;100359.59;3573770;40;20045;-44
2021/07/28 11:11:46;;;;;;;4.78;4.38;;;;;;;30.57;41.56;100352.63;3573450;40;20370;-45
2021/07/28 11:14:21;;;;;;;5.05;4.65;;;;;;;29.59;43.18;100355.09;3574199;40;20076;-44
2021/07/28 11:16:52;;;;;;;4.47;4.07;;;;;;;28.70;46.39;100344.25;3573611;40;20307;-44
2021/07/28 11:19:22;;;;;;;4.43;4.03;;;;;;;28.90;46.71;100351.94;3572973;40;20057;-43
2021/07/28 11:21:49;;;;;;;4.60;4.22;;;;;;;28.19;49.21;100343.47;3573601;40;20053;-44
2021/07/28 11:24:17;;;;;;;4.72;4.32;;;;;;;28.46;47.49;100340.34;3573724;40;20045;-43
2021/07/28 11:26:47;;;;;;;4.70;4.30;;;;;;;27.67;48.49;100338.28;3573876;40;20405;-46
2021/07/28 11:29:20;;;;;;;6.40;4.03;;;;;;;27.67;47.78;100343.53;3569965;40;20057;-46
2021/07/28 11:31:51;;;;;;;4.72;3.78;;;;;;;28.36;46.15;100347.91;3571813;40;20061;-43